Pear Valley, Texas
Current Conditions -  °F | °C
As of 3:55 AM on Saturday 29 Nov 2014 (Local Time) from KBBD Reporting Station
Clear Clear  
Wind Chill: 50°   Ceiling: Unl
Heat Index: 50°   Visibility: 10mi
Dew Point: 45°   Wind: 7mph
Humidity: 82%   Direction: 190°S
Pressure: 30"   Gusts: NA
Location:  31.31°N, 99.49°W
Report Text: KBBD 290955Z AUTO 19006KT 10SM CLR 10/07 A3000 RMK
Loading
Personal Weather Stations






























Interactive Weather Map New forecast layout! Learn more

10-Day Weather Forecast

Advertisements
Track Severe Weather on mobile